Time;durP1;ratioP1;P1;durP2;ratioP2;P2;SDS_P1;SDS_P2;PMS_P1;PMS_P2;Temp;Humidity;BMP_temperature;BMP_pressure;BME280_temperature;BME280_humidity;BME280_pressure;Samples;Min_cycle;Max_cycle;Signal;HPM_P1;HPM_P2
2022/07/15 00:01:50;;;;;;;6.93;2.03;;;;;;;;;;5114165;28;20161;-67
2022/07/15 00:04:16;;;;;;;4.28;1.77;;;;;;;;;;5114496;28;20055;-67
2022/07/15 00:06:42;;;;;;;7.78;2.00;;;;;;;;;;5113767;28;20054;-67
2022/07/15 00:09:09;;;;;;;7.47;2.13;;;;;;;;;;5113013;28;20040;-67
2022/07/15 00:11:35;;;;;;;7.45;2.08;;;;;;;;;;5113694;28;20036;-67
2022/07/15 00:14:02;;;;;;;7.53;2.17;;;;;;;;;;5112159;28;20096;-67
2022/07/15 00:16:28;;;;;;;12.27;2.42;;;;;;;;;;5113237;28;20124;-67
2022/07/15 00:18:54;;;;;;;5.72;2.03;;;;;;;;;;5113754;28;20365;-67
2022/07/15 00:21:20;;;;;;;5.63;2.00;;;;;;;;;;5113533;28;20036;-67
2022/07/15 00:23:46;;;;;;;4.57;1.70;;;;;;;;;;5112802;28;20161;-67
2022/07/15 00:26:12;;;;;;;7.63;2.22;;;;;;;;;;5122259;28;20050;-67
2022/07/15 00:28:38;;;;;;;7.25;1.95;;;;;;;;;;5134115;27;20378;-67
2022/07/15 00:31:05;;;;;;;7.80;2.05;;;;;;;;;;5133549;27;20075;-67
2022/07/15 00:33:31;;;;;;;8.63;2.00;;;;;;;;;;5132351;28;20071;-67
2022/07/15 00:35:57;;;;;;;8.43;1.92;;;;;;;;;;5133990;27;20077;-67
2022/07/15 00:38:23;;;;;;;9.93;1.85;;;;;;;;;;5133346;27;20122;-67
2022/07/15 00:40:50;;;;;;;5.45;1.92;;;;;;;;;;5133865;27;20047;-67
2022/07/15 00:43:17;;;;;;;8.45;2.15;;;;;;;;;;5133665;27;20424;-67
2022/07/15 00:45:43;;;;;;;6.97;2.10;;;;;;;;;;5133094;27;20070;-67
2022/07/15 00:48:09;;;;;;;8.70;2.28;;;;;;;;;;5133783;27;20042;-67
2022/07/15 00:50:36;;;;;;;7.57;1.83;;;;;;;;;;5133474;27;20062;-67
2022/07/15 00:53:19;;;;;;;8.90;2.30;;;;;;;;;;5131502;28;20047;-67
2022/07/15 00:55:46;;;;;;;8.05;2.20;;;;;;;;;;5133427;27;20045;-67
2022/07/15 00:58:23;;;;;;;4.47;1.50;;;;;;;;;;5133602;27;20466;-67
2022/07/15 01:00:50;;;;;;;5.78;1.88;;;;;;;;;;5132524;27;20470;-67
2022/07/15 01:03:19;;;;;;;6.53;1.88;;;;;;;;;;5133081;27;20126;-67
2022/07/15 01:05:46;;;;;;;8.82;1.92;;;;;;;;;;5095135;27;1091907;-67
2022/07/15 01:08:12;;;;;;;6.43;1.73;;;;;;;;;;5133823;27;20067;-67
2022/07/15 01:10:39;;;;;;;5.60;1.42;;;;;;;;;;5134431;27;20085;-67
2022/07/15 01:13:05;;;;;;;8.88;1.88;;;;;;;;;;5134113;27;20066;-67
2022/07/15 01:15:32;;;;;;;6.93;1.67;;;;;;;;;;5133376;27;20038;-67
2022/07/15 01:18:01;;;;;;;10.70;3.10;;;;;;;;;;5134021;27;20042;-67
2022/07/15 01:20:27;;;;;;;5.38;1.95;;;;;;;;;;5134228;27;20372;-67
2022/07/15 01:22:53;;;;;;;9.15;2.00;;;;;;;;;;5132088;27;20039;-67
2022/07/15 01:25:19;;;;;;;9.32;2.10;;;;;;;;;;5132629;27;20035;-67
2022/07/15 01:27:45;;;;;;;7.70;1.80;;;;;;;;;;5113741;28;20032;-67
2022/07/15 01:30:11;;;;;;;6.15;1.70;;;;;;;;;;5113150;28;20056;-67
2022/07/15 01:32:37;;;;;;;5.38;1.70;;;;;;;;;;5113582;28;20046;-67
2022/07/15 01:35:04;;;;;;;6.20;1.55;;;;;;;;;;5112231;28;20044;-67
2022/07/15 01:37:30;;;;;;;12.75;2.28;;;;;;;;;;5112750;28;20035;-67
2022/07/15 01:39:56;;;;;;;12.02;1.90;;;;;;;;;;5113412;28;20035;-67
2022/07/15 01:42:22;;;;;;;11.45;1.70;;;;;;;;;;5112986;28;20043;-67
2022/07/15 01:44:48;;;;;;;16.35;1.90;;;;;;;;;;5112776;28;20046;-67
2022/07/15 01:47:14;;;;;;;10.55;2.13;;;;;;;;;;5113299;28;20036;-67
2022/07/15 01:49:40;;;;;;;8.25;1.67;;;;;;;;;;5113139;28;20040;-67
2022/07/15 01:52:09;;;;;;;8.70;1.77;;;;;;;;;;5112387;28;20122;-67
2022/07/15 01:54:35;;;;;;;9.60;1.77;;;;;;;;;;5112711;28;20402;-67
2022/07/15 01:57:01;;;;;;;9.90;2.05;;;;;;;;;;5112802;28;20035;-67
2022/07/15 01:59:27;;;;;;;6.32;1.75;;;;;;;;;;5111130;28;20042;-67
2022/07/15 02:01:54;;;;;;;8.05;1.58;;;;;;;;;;5112779;28;20027;-67
2022/07/15 02:04:21;;;;;;;12.27;1.98;;;;;;;;;;5112630;28;20054;-67
2022/07/15 02:06:47;;;;;;;8.95;1.63;;;;;;;;;;5112208;28;20493;-67
2022/07/15 02:09:13;;;;;;;8.38;2.00;;;;;;;;;;5112962;28;20044;-67
2022/07/15 02:11:39;;;;;;;7.07;2.00;;;;;;;;;;5112827;28;20164;-67
2022/07/15 02:14:06;;;;;;;9.77;2.25;;;;;;;;;;5112015;28;20047;-67
2022/07/15 02:16:33;;;;;;;10.25;2.00;;;;;;;;;;5112447;28;20035;-67
2022/07/15 02:19:00;;;;;;;10.57;1.92;;;;;;;;;;5112380;28;20046;-67
2022/07/15 02:21:26;;;;;;;7.43;1.50;;;;;;;;;;5111438;28;20051;-67
2022/07/15 02:23:57;;;;;;;10.90;2.47;;;;;;;;;;5112256;28;20039;-67
2022/07/15 02:26:23;;;;;;;8.98;2.13;;;;;;;;;;5122651;27;20121;-67
2022/07/15 02:28:49;;;;;;;9.95;1.80;;;;;;;;;;5132302;27;20628;-67
2022/07/15 02:31:15;;;;;;;9.10;1.80;;;;;;;;;;5132974;27;20035;-67
2022/07/15 02:33:43;;;;;;;10.55;2.20;;;;;;;;;;5132524;27;20068;-67
2022/07/15 02:36:09;;;;;;;9.13;1.80;;;;;;;;;;5132271;27;20435;-67
2022/07/15 02:38:36;;;;;;;12.95;2.15;;;;;;;;;;5132912;27;20411;-67
2022/07/15 02:41:02;;;;;;;9.50;1.88;;;;;;;;;;5132614;27;20035;-67
2022/07/15 02:43:30;;;;;;;9.73;1.85;;;;;;;;;;5132163;27;20085;-67
2022/07/15 02:45:56;;;;;;;10.63;2.17;;;;;;;;;;5132533;27;20043;-67
2022/07/15 02:48:23;;;;;;;10.93;1.92;;;;;;;;;;5132791;27;20043;-67
2022/07/15 02:50:49;;;;;;;6.18;1.92;;;;;;;;;;5132216;27;20043;-67
2022/07/15 02:53:16;;;;;;;8.50;2.33;;;;;;;;;;5132593;27;20041;-67
2022/07/15 02:55:42;;;;;;;8.95;2.25;;;;;;;;;;5132843;27;20039;-67
2022/07/15 02:58:08;;;;;;;7.95;1.90;;;;;;;;;;5132342;27;20067;-67
2022/07/15 03:00:34;;;;;;;3.85;1.50;;;;;;;;;;5132458;27;20031;-67
2022/07/15 03:03:00;;;;;;;9.25;2.00;;;;;;;;;;5132265;27;20078;-67
2022/07/15 03:05:26;;;;;;;9.10;1.80;;;;;;;;;;5132204;27;20412;-67
2022/07/15 03:07:52;;;;;;;9.52;2.30;;;;;;;;;;5131901;27;20061;-67
2022/07/15 03:10:18;;;;;;;7.93;2.22;;;;;;;;;;5132489;27;20043;-67
2022/07/15 03:12:44;;;;;;;7.93;2.10;;;;;;;;;;5132458;27;20141;-67
2022/07/15 03:15:11;;;;;;;10.32;2.35;;;;;;;;;;5131636;27;20044;-67
2022/07/15 03:17:39;;;;;;;8.02;1.90;;;;;;;;;;5132254;27;20041;-68
2022/07/15 03:20:06;;;;;;;7.50;1.95;;;;;;;;;;5132356;27;20106;-68
2022/07/15 03:22:33;;;;;;;12.02;2.60;;;;;;;;;;5131557;27;20074;-68
2022/07/15 03:25:00;;;;;;;10.25;2.15;;;;;;;;;;5132273;27;20047;-67
2022/07/15 03:27:26;;;;;;;9.15;2.40;;;;;;;;;;5113158;27;20040;-67
2022/07/15 03:29:52;;;;;;;7.85;2.35;;;;;;;;;;5111056;28;20508;-67
2022/07/15 03:32:19;;;;;;;10.27;2.28;;;;;;;;;;5111672;28;20042;-67
2022/07/15 03:34:45;;;;;;;8.50;2.17;;;;;;;;;;5111653;28;20119;-67
2022/07/15 03:37:11;;;;;;;8.02;2.30;;;;;;;;;;5111141;28;20038;-67
2022/07/15 03:39:37;;;;;;;6.07;2.20;;;;;;;;;;5111902;28;20064;-67
2022/07/15 03:42:03;;;;;;;18.15;2.67;;;;;;;;;;5111584;28;20123;-67
2022/07/15 03:44:30;;;;;;;6.68;2.25;;;;;;;;;;5111097;28;20114;-67
2022/07/15 03:46:56;;;;;;;8.27;2.30;;;;;;;;;;5111410;28;20122;-67
2022/07/15 03:49:22;;;;;;;8.02;2.22;;;;;;;;;;5111790;28;20040;-67
2022/07/15 03:51:48;;;;;;;7.68;2.13;;;;;;;;;;5110992;28;20516;-67
2022/07/15 03:54:14;;;;;;;6.45;2.05;;;;;;;;;;5111316;28;20065;-67
2022/07/15 03:56:40;;;;;;;8.88;2.05;;;;;;;;;;5111623;28;20411;-67
2022/07/15 03:59:06;;;;;;;10.80;2.40;;;;;;;;;;5114495;28;20039;-67
2022/07/15 04:01:33;;;;;;;6.80;2.10;;;;;;;;;;5115045;28;20737;-67
2022/07/15 04:03:59;;;;;;;6.97;2.47;;;;;;;;;;5115189;28;20036;-67
2022/07/15 04:06:25;;;;;;;7.18;2.20;;;;;;;;;;5114578;28;20051;-67
2022/07/15 04:08:52;;;;;;;9.65;1.90;;;;;;;;;;5115177;28;20046;-67
2022/07/15 04:11:18;;;;;;;9.82;2.13;;;;;;;;;;5115077;27;20040;-67
2022/07/15 04:13:44;;;;;;;8.23;2.20;;;;;;;;;;5114347;28;20379;-67
2022/07/15 04:16:13;;;;;;;7.40;2.08;;;;;;;;;;5114822;28;20041;-67
2022/07/15 04:18:39;;;;;;;9.38;2.45;;;;;;;;;;5115077;28;20058;-67
2022/07/15 04:21:05;;;;;;;8.27;1.98;;;;;;;;;;5114147;28;20040;-67
2022/07/15 04:23:31;;;;;;;10.00;2.30;;;;;;;;;;5114843;28;20060;-67
2022/07/15 04:25:57;;;;;;;6.80;2.10;;;;;;;;;;5121125;27;20118;-67
2022/07/15 04:28:24;;;;;;;3.95;1.98;;;;;;;;;;5134053;27;20099;-67
2022/07/15 04:30:53;;;;;;;8.48;2.10;;;;;;;;;;5134897;27;20062;-67
2022/07/15 04:33:20;;;;;;;9.95;2.22;;;;;;;;;;5134609;27;20044;-67
2022/07/15 04:35:47;;;;;;;7.15;2.58;;;;;;;;;;5134391;27;20073;-67
2022/07/15 04:38:14;;;;;;;12.27;2.33;;;;;;;;;;5133547;27;20047;-67
2022/07/15 04:40:40;;;;;;;7.50;1.90;;;;;;;;;;5135171;27;20458;-67
2022/07/15 04:43:07;;;;;;;5.35;2.00;;;;;;;;;;5134190;27;20422;-67
2022/07/15 04:45:33;;;;;;;11.75;2.85;;;;;;;;;;5134901;27;20375;-67
2022/07/15 04:47:59;;;;;;;5.88;1.85;;;;;;;;;;5134989;27;20039;-67
2022/07/15 04:53:10;;;;;;;8.27;2.03;;;;;;;;;;5134856;27;20043;-67
2022/07/15 04:55:36;;;;;;;6.65;2.08;;;;;;;;;;5134637;27;20118;-67
2022/07/15 04:58:02;;;;;;;5.93;1.95;;;;;;;;;;5115210;27;20039;-67
2022/07/15 05:00:29;;;;;;;10.63;2.55;;;;;;;;;;5134608;27;20508;-67
2022/07/15 05:02:55;;;;;;;6.43;1.80;;;;;;;;;;5134540;27;20035;-67
2022/07/15 05:05:21;;;;;;;7.43;2.20;;;;;;;;;;5133408;27;20085;-67
2022/07/15 05:07:47;;;;;;;8.68;1.70;;;;;;;;;;5134405;27;20035;-67
2022/07/15 05:10:13;;;;;;;8.75;2.38;;;;;;;;;;5129474;27;20461;-68
2022/07/15 05:12:40;;;;;;;8.73;1.98;;;;;;;;;;5139432;27;20476;-67
2022/07/15 05:15:06;;;;;;;7.13;2.10;;;;;;;;;;5154391;27;20042;-67
2022/07/15 05:17:33;;;;;;;9.40;2.03;;;;;;;;;;5154562;27;20414;-67
2022/07/15 05:20:00;;;;;;;6.65;1.60;;;;;;;;;;5153989;27;20607;-67
2022/07/15 05:22:26;;;;;;;4.30;1.70;;;;;;;;;;5136830;27;20397;-67
2022/07/15 05:24:52;;;;;;;10.57;2.25;;;;;;;;;;5141384;27;20122;-67
2022/07/15 05:27:18;;;;;;;4.18;1.77;;;;;;;;;;5135526;27;20043;-67
2022/07/15 05:29:45;;;;;;;7.18;1.73;;;;;;;;;;5148677;27;20579;-67
2022/07/15 05:32:11;;;;;;;8.95;1.77;;;;;;;;;;5154253;27;20038;-67
2022/07/15 05:34:37;;;;;;;10.13;1.90;;;;;;;;;;5153709;27;20054;-67
2022/07/15 05:37:04;;;;;;;8.10;1.52;;;;;;;;;;5154099;27;20039;-67
2022/07/15 05:39:30;;;;;;;6.43;1.45;;;;;;;;;;5154376;27;20038;-67
2022/07/15 05:41:58;;;;;;;9.55;1.50;;;;;;;;;;5152895;27;20095;-67
2022/07/15 05:44:24;;;;;;;7.63;1.33;;;;;;;;;;5154451;27;20039;-67
2022/07/15 05:46:50;;;;;;;6.72;1.75;;;;;;;;;;5154001;27;20079;-67
2022/07/15 05:49:17;;;;;;;7.05;1.75;;;;;;;;;;5153556;27;20200;-67
2022/07/15 05:51:44;;;;;;;7.60;1.70;;;;;;;;;;5154059;27;20058;-67
2022/07/15 05:54:13;;;;;;;7.40;1.42;;;;;;;;;;5154027;27;20043;-67
2022/07/15 05:56:39;;;;;;;8.85;1.88;;;;;;;;;;5152893;27;20049;-67
2022/07/15 05:59:05;;;;;;;4.88;1.48;;;;;;;;;;5146293;27;20492;-65
2022/07/15 06:01:31;;;;;;;10.50;1.67;;;;;;;;;;5153496;27;20396;-65
2022/07/15 06:03:57;;;;;;;9.32;1.48;;;;;;;;;;5138306;27;20492;-65
2022/07/15 06:06:23;;;;;;;4.85;1.40;;;;;;;;;;5151942;27;20049;-65
2022/07/15 06:08:49;;;;;;;4.90;1.27;;;;;;;;;;5153396;27;20042;-63
2022/07/15 06:11:15;;;;;;;2.30;0.80;;;;;;;;;;5152496;27;20077;-65
2022/07/15 06:13:41;;;;;;;6.57;1.10;;;;;;;;;;5139201;27;20130;-66
2022/07/15 06:16:08;;;;;;;2.15;0.80;;;;;;;;;;5152818;27;20030;-64
2022/07/15 06:18:34;;;;;;;8.68;1.65;;;;;;;;;;5152097;27;20074;-65
2022/07/15 06:21:00;;;;;;;8.65;1.10;;;;;;;;;;5152917;27;20046;-65
2022/07/15 06:23:26;;;;;;;6.05;1.10;;;;;;;;;;5153041;27;20035;-66
2022/07/15 06:25:52;;;;;;;4.70;0.98;;;;;;;;;;5147137;27;20070;-66
2022/07/15 06:28:18;;;;;;;6.13;0.60;;;;;;;;;;5148474;27;20042;-65
2022/07/15 06:30:44;;;;;;;4.38;0.82;;;;;;;;;;5142411;27;20046;-64
2022/07/15 06:33:10;;;;;;;8.15;1.00;;;;;;;;;;5144760;27;20533;-64
2022/07/15 06:35:36;;;;;;;18.60;1.50;;;;;;;;;;5146396;27;20502;-64
2022/07/15 06:38:02;;;;;;;4.50;0.80;;;;;;;;;;5138978;27;20035;-66
2022/07/15 06:40:28;;;;;;;4.22;1.05;;;;;;;;;;5151886;27;20045;-66
2022/07/15 06:42:54;;;;;;;9.02;1.42;;;;;;;;;;5137295;27;20035;-66
2022/07/15 06:45:20;;;;;;;6.85;0.90;;;;;;;;;;5141511;27;20030;-66
2022/07/15 06:47:46;;;;;;;3.47;0.70;;;;;;;;;;5144073;27;20043;-65
2022/07/15 06:50:14;;;;;;;4.38;0.88;;;;;;;;;;5147871;27;20046;-64
2022/07/15 06:52:40;;;;;;;5.53;0.77;;;;;;;;;;5151925;27;20122;-64
2022/07/15 06:55:06;;;;;;;3.45;0.63;;;;;;;;;;5151352;27;20113;-65
2022/07/15 06:57:32;;;;;;;3.95;0.70;;;;;;;;;;5151314;27;20027;-66
2022/07/15 06:59:58;;;;;;;3.58;0.65;;;;;;;;;;5148400;27;20038;-64
2022/07/15 07:02:24;;;;;;;2.83;0.57;;;;;;;;;;5144062;27;20039;-67
2022/07/15 07:04:50;;;;;;;1.85;0.70;;;;;;;;;;5135342;27;20062;-67
2022/07/15 07:07:16;;;;;;;3.03;0.70;;;;;;;;;;5152054;27;20046;-65
2022/07/15 07:09:42;;;;;;;4.65;0.40;;;;;;;;;;5148797;27;20042;-66
2022/07/15 07:12:08;;;;;;;6.63;0.68;;;;;;;;;;5146872;27;20043;-65
2022/07/15 07:14:35;;;;;;;3.67;0.40;;;;;;;;;;5132770;27;20050;-66
2022/07/15 07:17:01;;;;;;;5.07;0.57;;;;;;;;;;5151608;27;20038;-65
2022/07/15 07:19:26;;;;;;;2.15;0.50;;;;;;;;;;5151772;27;20046;-65
2022/07/15 07:21:52;;;;;;;3.95;0.52;;;;;;;;;;5151113;27;20640;-65
2022/07/15 07:24:19;;;;;;;1.95;0.40;;;;;;;;;;5150613;27;20043;-65
2022/07/15 07:26:45;;;;;;;2.95;0.50;;;;;;;;;;5130697;27;20043;-66
2022/07/15 07:29:12;;;;;;;2.35;0.35;;;;;;;;;;5132942;27;20401;-67
2022/07/15 07:31:38;;;;;;;5.43;0.50;;;;;;;;;;5140720;27;20050;-66
2022/07/15 07:34:04;;;;;;;5.18;0.55;;;;;;;;;;5154752;27;20061;-65
2022/07/15 07:36:30;;;;;;;4.40;0.55;;;;;;;;;;5154894;27;20047;-65
2022/07/15 07:38:56;;;;;;;4.85;0.50;;;;;;;;;;5156001;27;20042;-65
2022/07/15 07:41:22;;;;;;;1.92;0.30;;;;;;;;;;5139217;27;20057;-65
2022/07/15 07:43:48;;;;;;;3.55;0.50;;;;;;;;;;5134819;27;20130;-65
2022/07/15 07:46:16;;;;;;;15.38;0.88;;;;;;;;;;5135189;27;20244;-66
2022/07/15 07:48:42;;;;;;;5.55;0.30;;;;;;;;;;5135987;27;20053;-66
2022/07/15 07:51:09;;;;;;;2.20;0.52;;;;;;;;;;5155664;27;20701;-66
2022/07/15 07:53:35;;;;;;;3.45;0.50;;;;;;;;;;5148153;27;20168;-68
2022/07/15 07:56:01;;;;;;;5.80;0.60;;;;;;;;;;5154531;27;20087;-68
2022/07/15 07:58:27;;;;;;;1.92;0.28;;;;;;;;;;5155019;27;20046;-67
2022/07/15 08:00:55;;;;;;;1.83;0.30;;;;;;;;;;5155235;27;20035;-65
2022/07/15 08:03:21;;;;;;;3.55;0.50;;;;;;;;;;5154036;27;20464;-65
2022/07/15 08:05:47;;;;;;;0.63;0.30;;;;;;;;;;5154894;27;20103;-66
2022/07/15 08:08:15;;;;;;;1.52;0.50;;;;;;;;;;5154720;27;20047;-65
2022/07/15 08:10:42;;;;;;;1.80;0.50;;;;;;;;;;5154354;27;20037;-66
2022/07/15 08:13:09;;;;;;;5.15;0.50;;;;;;;;;;5155105;27;20035;-66
2022/07/15 08:15:35;;;;;;;4.45;1.05;;;;;;;;;;5155157;27;20050;-67
2022/07/15 08:18:01;;;;;;;2.15;0.40;;;;;;;;;;5154562;27;20038;-66
2022/07/15 08:20:28;;;;;;;2.13;0.45;;;;;;;;;;5154478;27;20042;-67
2022/07/15 08:22:58;;;;;;;3.45;0.50;;;;;;;;;;5153070;27;20051;-67
2022/07/15 08:25:34;;;;;;;4.55;0.50;;;;;;;;;;5152500;27;20046;-66
2022/07/15 08:28:00;;;;;;;5.25;0.50;;;;;;;;;;5148339;27;20045;-66
2022/07/15 08:30:27;;;;;;;2.60;0.30;;;;;;;;;;5154128;27;20046;-67
2022/07/15 08:32:53;;;;;;;2.63;0.40;;;;;;;;;;5153322;27;20133;-67
2022/07/15 08:35:19;;;;;;;0.93;0.30;;;;;;;;;;5154243;27;20039;-67
2022/07/15 08:37:45;;;;;;;1.45;0.30;;;;;;;;;;5154330;27;20046;-67
2022/07/15 08:40:12;;;;;;;2.65;0.40;;;;;;;;;;5152182;27;20103;-67
2022/07/15 08:42:43;;;;;;;4.68;0.40;;;;;;;;;;5153883;27;20141;-66
2022/07/15 08:45:09;;;;;;;1.90;0.32;;;;;;;;;;5154301;27;20049;-66
2022/07/15 08:47:37;;;;;;;1.42;0.30;;;;;;;;;;5153540;27;20437;-66
2022/07/15 08:50:04;;;;;;;0.98;0.30;;;;;;;;;;5154532;27;20472;-65
2022/07/15 08:52:32;;;;;;;2.63;0.35;;;;;;;;;;5153897;27;20071;-65
2022/07/15 08:54:59;;;;;;;2.15;0.30;;;;;;;;;;5153350;27;20047;-66
2022/07/15 08:57:25;;;;;;;0.75;0.47;;;;;;;;;;5154392;27;20091;-68
2022/07/15 08:59:52;;;;;;;4.80;0.40;;;;;;;;;;5154238;27;20440;-67
2022/07/15 09:02:22;;;;;;;0.95;0.30;;;;;;;;;;5153264;27;20062;-66
2022/07/15 09:05:06;;;;;;;1.77;0.30;;;;;;;;;;5153567;27;20134;-67
2022/07/15 09:07:50;;;;;;;0.90;0.60;;;;;;;;;;5152668;27;20114;-66
2022/07/15 09:10:16;;;;;;;2.33;0.68;;;;;;;;;;5150163;27;20043;-65
2022/07/15 09:12:42;;;;;;;1.73;0.45;;;;;;;;;;5152092;27;20091;-67
2022/07/15 09:15:08;;;;;;;2.28;0.30;;;;;;;;;;5153602;27;20049;-68
2022/07/15 09:17:35;;;;;;;5.68;0.93;;;;;;;;;;5152411;27;20046;-66
2022/07/15 09:20:01;;;;;;;3.85;0.70;;;;;;;;;;5152571;27;20057;-67
2022/07/15 09:22:30;;;;;;;1.05;0.28;;;;;;;;;;5153474;27;20074;-66
2022/07/15 09:25:05;;;;;;;3.22;0.50;;;;;;;;;;5152405;27;20043;-66
2022/07/15 09:27:32;;;;;;;4.65;0.40;;;;;;;;;;5141595;27;20046;-65
2022/07/15 09:36:01;;;;;;;1.67;0.43;;;;;;;;;;5148119;27;20489;-66
2022/07/15 09:38:29;;;;;;;2.00;0.40;;;;;;;;;;5127312;27;20035;-65
2022/07/15 09:40:55;;;;;;;0.98;0.30;;;;;;;;;;5152507;27;20115;-65
2022/07/15 09:43:21;;;;;;;1.73;0.40;;;;;;;;;;5152920;27;20034;-67
2022/07/15 09:45:55;;;;;;;1.90;0.30;;;;;;;;;;5152397;27;20580;-67
2022/07/15 09:48:21;;;;;;;1.73;0.30;;;;;;;;;;5152956;27;20022;-67
2022/07/15 09:50:48;;;;;;;0.98;0.30;;;;;;;;;;5153237;27;20069;-65
2022/07/15 09:53:14;;;;;;;0.52;0.30;;;;;;;;;;5152528;27;20041;-64
2022/07/15 09:55:40;;;;;;;0.65;0.22;;;;;;;;;;5152698;27;20035;-63
2022/07/15 09:58:08;;;;;;;0.85;0.38;;;;;;;;;;5153228;27;20034;-65
2022/07/15 10:00:34;;;;;;;0.98;0.30;;;;;;;;;;5152327;27;20070;-65
2022/07/15 10:03:01;;;;;;;1.35;0.40;;;;;;;;;;5153030;27;20115;-66
2022/07/15 10:05:27;;;;;;;1.65;0.40;;;;;;;;;;5152761;27;20070;-66
2022/07/15 10:07:56;;;;;;;1.65;0.40;;;;;;;;;;5152489;27;20039;-66
2022/07/15 10:10:23;;;;;;;1.20;0.20;;;;;;;;;;5153002;27;20048;-65
2022/07/15 10:13:05;;;;;;;1.10;0.30;;;;;;;;;;5153081;27;20049;-65
2022/07/15 10:15:50;;;;;;;0.75;0.30;;;;;;;;;;5118749;27;20053;-65
2022/07/15 10:18:34;;;;;;;1.08;0.20;;;;;;;;;;5152758;27;20039;-65
2022/07/15 10:21:12;;;;;;;1.30;0.30;;;;;;;;;;5152997;27;20125;-65
2022/07/15 10:23:41;;;;;;;0.80;0.35;;;;;;;;;;5119434;27;20361;-65
2022/07/15 10:26:07;;;;;;;3.60;0.40;;;;;;;;;;5144854;27;20039;-65
2022/07/15 10:28:42;;;;;;;1.73;0.50;;;;;;;;;;5144105;27;20467;-66
2022/07/15 10:31:15;;;;;;;4.03;0.30;;;;;;;;;;5151745;27;20034;-66
2022/07/15 10:33:41;;;;;;;0.55;0.30;;;;;;;;;;5121857;27;20046;-67
2022/07/15 10:36:07;;;;;;;2.63;0.40;;;;;;;;;;5152333;27;20038;-66
2022/07/15 10:38:37;;;;;;;1.42;0.50;;;;;;;;;;5151762;27;20099;-67
2022/07/15 10:41:14;;;;;;;1.92;0.47;;;;;;;;;;5152377;27;20035;-66
2022/07/15 10:43:40;;;;;;;2.15;0.30;;;;;;;;;;5119485;27;20047;-66
2022/07/15 10:46:17;;;;;;;1.08;0.40;;;;;;;;;;5151864;27;20508;-66
2022/07/15 10:48:44;;;;;;;2.15;0.82;;;;;;;;;;5152418;27;20043;-65
2022/07/15 10:51:10;;;;;;;1.70;0.30;;;;;;;;;;5152220;27;20133;-65
2022/07/15 10:53:46;;;;;;;1.13;0.47;;;;;;;;;;5151882;27;20035;-67
2022/07/15 10:56:32;;;;;;;1.08;0.30;;;;;;;;;;5152701;27;20038;-65
2022/07/15 10:59:14;;;;;;;1.58;0.30;;;;;;;;;;5152015;27;20046;-65
2022/07/15 11:01:42;;;;;;;0.90;0.30;;;;;;;;;;5152441;27;20105;-65
2022/07/15 11:04:14;;;;;;;2.42;0.30;;;;;;;;;;5146535;27;20145;-66
2022/07/15 11:07:00;;;;;;;0.40;0.25;;;;;;;;;;5145685;27;20046;-66
2022/07/15 11:09:45;;;;;;;3.13;0.55;;;;;;;;;;5156617;27;20042;-66
2022/07/15 11:12:11;;;;;;;2.35;0.50;;;;;;;;;;5156449;27;20050;-66
2022/07/15 11:14:52;;;;;;;1.02;0.20;;;;;;;;;;5155892;27;20043;-67
2022/07/15 11:17:19;;;;;;;0.85;0.30;;;;;;;;;;5138786;27;20035;-68
2022/07/15 11:19:51;;;;;;;1.33;0.40;;;;;;;;;;5152275;27;20039;-69
2022/07/15 11:22:18;;;;;;;4.20;0.50;;;;;;;;;;5149096;27;20436;-69
2022/07/15 11:24:45;;;;;;;1.38;0.43;;;;;;;;;;5156108;27;20049;-66
2022/07/15 11:27:11;;;;;;;1.75;0.40;;;;;;;;;;5155112;27;20035;-66
2022/07/15 11:29:44;;;;;;;1.52;0.52;;;;;;;;;;5147582;27;20042;-69
2022/07/15 11:32:10;;;;;;;2.13;0.50;;;;;;;;;;5156147;27;20525;-69
2022/07/15 11:34:40;;;;;;;1.95;0.65;;;;;;;;;;5155791;27;20515;-68
2022/07/15 11:37:07;;;;;;;0.57;0.22;;;;;;;;;;5143810;27;20047;-68
2022/07/15 11:39:33;;;;;;;1.92;0.30;;;;;;;;;;5153878;27;20091;-67
2022/07/15 11:44:51;;;;;;;1.92;0.47;;;;;;;;;;5155133;27;20050;-67
2022/07/15 11:47:18;;;;;;;7.13;0.60;;;;;;;;;;5155064;27;20095;-66
2022/07/15 11:49:44;;;;;;;1.63;0.60;;;;;;;;;;5155640;27;20050;-66
2022/07/15 11:52:11;;;;;;;2.17;0.50;;;;;;;;;;5154650;27;20042;-66
2022/07/15 11:54:39;;;;;;;1.83;0.50;;;;;;;;;;5152151;27;20043;-66
2022/07/15 11:57:07;;;;;;;0.82;0.50;;;;;;;;;;5154447;27;20035;-65
2022/07/15 11:59:33;;;;;;;1.17;0.30;;;;;;;;;;5154337;27;20046;-66
2022/07/15 12:02:03;;;;;;;3.30;0.50;;;;;;;;;;5134057;27;20139;-66
2022/07/15 12:04:29;;;;;;;3.38;0.57;;;;;;;;;;5154820;27;20157;-68
2022/07/15 12:06:55;;;;;;;2.13;0.35;;;;;;;;;;5154427;27;20043;-66
2022/07/15 12:09:21;;;;;;;2.15;0.40;;;;;;;;;;5155132;27;20078;-66
2022/07/15 12:11:47;;;;;;;2.00;0.50;;;;;;;;;;5154999;27;20113;-64
2022/07/15 12:14:18;;;;;;;2.58;0.30;;;;;;;;;;5154303;27;20117;-65
2022/07/15 12:16:53;;;;;;;1.77;0.40;;;;;;;;;;5155061;27;20398;-66
2022/07/15 12:19:21;;;;;;;0.82;0.40;;;;;;;;;;5153982;27;20070;-65
2022/07/15 12:21:48;;;;;;;2.45;0.68;;;;;;;;;;5154060;27;20133;-64
2022/07/15 12:24:18;;;;;;;3.13;0.50;;;;;;;;;;5154939;27;20536;-65
2022/07/15 12:26:50;;;;;;;2.58;0.47;;;;;;;;;;5152694;27;20410;-64
2022/07/15 12:29:17;;;;;;;;;;;;;;;;;;5154543;27;20053;-67
2022/07/15 12:31:51;;;;;;;1.75;0.30;;;;;;;;;;5154515;27;19915;-67
2022/07/15 12:34:17;;;;;;;0.45;0.25;;;;;;;;;;5154778;27;20043;-66
2022/07/15 12:36:43;;;;;;;1.85;0.32;;;;;;;;;;5154233;27;20440;-68
2022/07/15 12:39:13;;;;;;;0.70;0.20;;;;;;;;;;5154007;27;20049;-68
2022/07/15 12:41:41;;;;;;;0.38;0.20;;;;;;;;;;5154948;27;20038;-68
2022/07/15 12:44:08;;;;;;;1.38;0.22;;;;;;;;;;5154553;27;20043;-68
2022/07/15 12:46:52;;;;;;;0.82;0.20;;;;;;;;;;5147896;27;20045;-67
2022/07/15 12:49:37;;;;;;;2.00;0.45;;;;;;;;;;5133961;27;20092;-68
2022/07/15 12:52:15;;;;;;;1.90;0.32;;;;;;;;;;5112979;28;20040;-68
2022/07/15 12:54:41;;;;;;;0.57;0.30;;;;;;;;;;5132870;27;20091;-67
2022/07/15 12:57:18;;;;;;;1.65;0.65;;;;;;;;;;5155345;27;20349;-68
2022/07/15 12:59:55;;;;;;;2.03;0.30;;;;;;;;;;5152716;27;20062;-68
2022/07/15 13:02:21;;;;;;;1.75;0.25;;;;;;;;;;5154821;27;20039;-68
2022/07/15 13:04:47;;;;;;;2.63;0.45;;;;;;;;;;5155362;27;20053;-68
2022/07/15 13:07:14;;;;;;;2.67;0.30;;;;;;;;;;5154786;27;20418;-68
2022/07/15 13:09:40;;;;;;;1.08;0.38;;;;;;;;;;5153740;27;20125;-68
2022/07/15 13:12:08;;;;;;;4.47;0.40;;;;;;;;;;5154493;27;20047;-68
2022/07/15 13:14:35;;;;;;;0.52;0.20;;;;;;;;;;5154361;27;20043;-68
2022/07/15 13:17:01;;;;;;;3.60;0.50;;;;;;;;;;5155152;27;20064;-68
2022/07/15 13:19:27;;;;;;;0.68;0.30;;;;;;;;;;5153706;27;20034;-68
2022/07/15 13:21:53;;;;;;;1.25;0.32;;;;;;;;;;5153794;27;20595;-68
2022/07/15 13:24:19;;;;;;;2.35;0.40;;;;;;;;;;5154715;27;20479;-68
2022/07/15 13:26:46;;;;;;;1.35;0.40;;;;;;;;;;5154751;27;20078;-68
2022/07/15 13:29:12;;;;;;;1.83;0.30;;;;;;;;;;5153619;27;20043;-68
2022/07/15 13:31:38;;;;;;;2.25;0.40;;;;;;;;;;5153869;27;20060;-68
2022/07/15 13:34:04;;;;;;;3.63;0.40;;;;;;;;;;5153423;27;20038;-68
2022/07/15 13:36:30;;;;;;;2.35;0.28;;;;;;;;;;5153910;27;20050;-68
2022/07/15 13:38:56;;;;;;;2.65;0.40;;;;;;;;;;5154649;27;20517;-68
2022/07/15 13:41:22;;;;;;;3.08;0.40;;;;;;;;;;5154483;27;20126;-68
2022/07/15 13:43:48;;;;;;;3.58;0.40;;;;;;;;;;5153577;27;20049;-68
2022/07/15 13:46:14;;;;;;;0.57;0.30;;;;;;;;;;5154371;27;20058;-68
2022/07/15 13:48:40;;;;;;;1.30;0.30;;;;;;;;;;5154381;27;20129;-68
2022/07/15 13:51:22;;;;;;;2.80;0.50;;;;;;;;;;5153672;27;20374;-68
2022/07/15 13:53:49;;;;;;;1.30;0.30;;;;;;;;;;5154186;27;20313;-68
2022/07/15 13:56:15;;;;;;;4.55;0.50;;;;;;;;;;5154282;27;20038;-68
2022/07/15 13:58:42;;;;;;;1.00;0.35;;;;;;;;;;5153938;27;20034;-68
2022/07/15 14:01:08;;;;;;;0.88;0.40;;;;;;;;;;5154440;27;20035;-68
2022/07/15 14:03:34;;;;;;;3.50;0.90;;;;;;;;;;5153967;27;20041;-68
2022/07/15 14:06:00;;;;;;;1.55;0.57;;;;;;;;;;5153259;27;20051;-68
2022/07/15 14:08:26;;;;;;;2.75;0.40;;;;;;;;;;5154042;27;20453;-68
2022/07/15 14:10:52;;;;;;;1.58;0.40;;;;;;;;;;5154106;27;20045;-68
2022/07/15 14:13:18;;;;;;;1.98;0.50;;;;;;;;;;5153047;27;20101;-68
2022/07/15 14:15:44;;;;;;;2.67;0.70;;;;;;;;;;5153677;27;20404;-67
2022/07/15 14:18:11;;;;;;;1.25;0.40;;;;;;;;;;5154090;27;20030;-68
2022/07/15 14:20:37;;;;;;;1.17;0.40;;;;;;;;;;5152943;27;20092;-68
2022/07/15 14:23:03;;;;;;;1.75;0.50;;;;;;;;;;5152218;27;20115;-68
2022/07/15 14:25:30;;;;;;;3.83;0.95;;;;;;;;;;5151080;27;20553;-68
2022/07/15 14:27:56;;;;;;;5.47;0.80;;;;;;;;;;5132637;27;20069;-68
2022/07/15 14:30:23;;;;;;;2.63;0.70;;;;;;;;;;5132616;27;20725;-68
2022/07/15 14:32:49;;;;;;;1.73;0.60;;;;;;;;;;5132776;27;20043;-68
2022/07/15 14:35:15;;;;;;;1.40;0.40;;;;;;;;;;5132281;27;20055;-68
2022/07/15 14:37:42;;;;;;;3.78;0.60;;;;;;;;;;5131524;27;20054;-68
2022/07/15 14:40:08;;;;;;;2.10;0.73;;;;;;;;;;5132790;27;20037;-68
2022/07/15 14:42:35;;;;;;;1.60;0.50;;;;;;;;;;5131025;27;20039;-68
2022/07/15 14:45:01;;;;;;;1.58;0.70;;;;;;;;;;5132554;27;20061;-68
2022/07/15 14:47:27;;;;;;;1.55;0.80;;;;;;;;;;5132758;27;20046;-68
2022/07/15 14:49:53;;;;;;;1.55;0.57;;;;;;;;;;5131939;27;20043;-68
2022/07/15 14:52:19;;;;;;;3.65;0.90;;;;;;;;;;5132398;27;20043;-68
2022/07/15 14:54:45;;;;;;;1.45;0.63;;;;;;;;;;5132394;27;20379;-68
2022/07/15 14:57:11;;;;;;;4.72;0.60;;;;;;;;;;5132017;27;20032;-68